sensor_id;sensor_type;location;lat;lon;timestamp;P1;durP1;ratioP1;P2;durP2;ratioP2
8663;SDS011;4369;47.842;13.096;2022-11-20T00:00:14;7.13;;;6.37;;
8663;SDS011;4369;47.842;13.096;2022-11-20T00:02:42;6.93;;;6.23;;
8663;SDS011;4369;47.842;13.096;2022-11-20T00:05:08;6.13;;;5.57;;
8663;SDS011;4369;47.842;13.096;2022-11-20T00:07:35;6.10;;;5.50;;
8663;SDS011;4369;47.842;13.096;2022-11-20T00:10:02;6.13;;;5.40;;
8663;SDS011;4369;47.842;13.096;2022-11-20T00:12:29;6.57;;;5.97;;
8663;SDS011;4369;47.842;13.096;2022-11-20T00:14:58;6.57;;;5.53;;
8663;SDS011;4369;47.842;13.096;2022-11-20T00:17:25;6.57;;;5.17;;
8663;SDS011;4369;47.842;13.096;2022-11-20T00:19:52;6.30;;;5.70;;
8663;SDS011;4369;47.842;13.096;2022-11-20T00:22:19;5.33;;;4.60;;
8663;SDS011;4369;47.842;13.096;2022-11-20T00:24:46;7.13;;;4.23;;
8663;SDS011;4369;47.842;13.096;2022-11-20T00:27:13;5.53;;;4.83;;
8663;SDS011;4369;47.842;13.096;2022-11-20T00:29:39;5.37;;;4.37;;
8663;SDS011;4369;47.842;13.096;2022-11-20T00:32:08;5.67;;;3.67;;
8663;SDS011;4369;47.842;13.096;2022-11-20T00:34:34;4.27;;;3.87;;
8663;SDS011;4369;47.842;13.096;2022-11-20T00:37:01;4.20;;;3.80;;
8663;SDS011;4369;47.842;13.096;2022-11-20T00:39:28;4.60;;;4.13;;
8663;SDS011;4369;47.842;13.096;2022-11-20T00:41:55;5.50;;;3.93;;
8663;SDS011;4369;47.842;13.096;2022-11-20T00:44:22;4.73;;;4.07;;
8663;SDS011;4369;47.842;13.096;2022-11-20T00:46:49;5.30;;;3.80;;
8663;SDS011;4369;47.842;13.096;2022-11-20T00:49:17;5.73;;;3.57;;
8663;SDS011;4369;47.842;13.096;2022-11-20T00:51:44;6.60;;;6.00;;
8663;SDS011;4369;47.842;13.096;2022-11-20T00:54:11;4.33;;;3.60;;
8663;SDS011;4369;47.842;13.096;2022-11-20T00:56:38;4.67;;;4.13;;
8663;SDS011;4369;47.842;13.096;2022-11-20T00:59:05;4.07;;;3.50;;
8663;SDS011;4369;47.842;13.096;2022-11-20T01:01:32;4.10;;;3.70;;
8663;SDS011;4369;47.842;13.096;2022-11-20T01:03:59;4.20;;;3.73;;
8663;SDS011;4369;47.842;13.096;2022-11-20T01:06:28;4.53;;;3.90;;
8663;SDS011;4369;47.842;13.096;2022-11-20T01:08:57;4.77;;;3.90;;
8663;SDS011;4369;47.842;13.096;2022-11-20T01:11:26;4.33;;;3.80;;
8663;SDS011;4369;47.842;13.096;2022-11-20T01:13:55;5.13;;;3.60;;
8663;SDS011;4369;47.842;13.096;2022-11-20T01:16:24;4.97;;;3.43;;
8663;SDS011;4369;47.842;13.096;2022-11-20T01:18:52;4.97;;;3.87;;
8663;SDS011;4369;47.842;13.096;2022-11-20T01:21:23;6.23;;;3.70;;
8663;SDS011;4369;47.842;13.096;2022-11-20T01:23:53;4.23;;;3.47;;
8663;SDS011;4369;47.842;13.096;2022-11-20T01:26:20;4.10;;;3.60;;
8663;SDS011;4369;47.842;13.096;2022-11-20T01:28:49;4.57;;;3.90;;
8663;SDS011;4369;47.842;13.096;2022-11-20T01:31:17;4.43;;;3.23;;
8663;SDS011;4369;47.842;13.096;2022-11-20T01:33:46;4.60;;;3.70;;
8663;SDS011;4369;47.842;13.096;2022-11-20T01:36:15;4.03;;;3.67;;
8663;SDS011;4369;47.842;13.096;2022-11-20T01:38:43;4.77;;;3.50;;
8663;SDS011;4369;47.842;13.096;2022-11-20T01:41:11;3.77;;;3.27;;
8663;SDS011;4369;47.842;13.096;2022-11-20T01:44:01;4.73;;;3.50;;
8663;SDS011;4369;47.842;13.096;2022-11-20T01:46:28;4.27;;;3.50;;
8663;SDS011;4369;47.842;13.096;2022-11-20T01:48:57;3.83;;;3.40;;
8663;SDS011;4369;47.842;13.096;2022-11-20T01:51:28;3.73;;;3.43;;
8663;SDS011;4369;47.842;13.096;2022-11-20T01:53:58;3.73;;;3.40;;
8663;SDS011;4369;47.842;13.096;2022-11-20T01:56:30;4.33;;;3.50;;
8663;SDS011;4369;47.842;13.096;2022-11-20T01:58:59;3.63;;;3.33;;
8663;SDS011;4369;47.842;13.096;2022-11-20T02:01:30;5.23;;;3.23;;
8663;SDS011;4369;47.842;13.096;2022-11-20T02:03:57;3.50;;;3.20;;
8663;SDS011;4369;47.842;13.096;2022-11-20T02:06:26;4.07;;;3.30;;
8663;SDS011;4369;47.842;13.096;2022-11-20T02:08:55;4.13;;;3.20;;
8663;SDS011;4369;47.842;13.096;2022-11-20T02:11:21;3.60;;;3.30;;
8663;SDS011;4369;47.842;13.096;2022-11-20T02:13:50;3.40;;;3.10;;
8663;SDS011;4369;47.842;13.096;2022-11-20T02:16:17;4.93;;;3.30;;
8663;SDS011;4369;47.842;13.096;2022-11-20T02:18:48;3.63;;;3.10;;
8663;SDS011;4369;47.842;13.096;2022-11-20T02:21:19;4.37;;;3.20;;
8663;SDS011;4369;47.842;13.096;2022-11-20T02:24:04;3.47;;;2.77;;
8663;SDS011;4369;47.842;13.096;2022-11-20T02:26:38;3.17;;;2.87;;
8663;SDS011;4369;47.842;13.096;2022-11-20T02:29:08;5.10;;;3.20;;
8663;SDS011;4369;47.842;13.096;2022-11-20T02:31:36;3.60;;;2.70;;
8663;SDS011;4369;47.842;13.096;2022-11-20T02:34:05;3.50;;;3.20;;
8663;SDS011;4369;47.842;13.096;2022-11-20T02:36:32;4.10;;;2.60;;
8663;SDS011;4369;47.842;13.096;2022-11-20T02:39:01;3.27;;;2.90;;
8663;SDS011;4369;47.842;13.096;2022-11-20T02:41:34;2.83;;;2.60;;
8663;SDS011;4369;47.842;13.096;2022-11-20T02:44:02;3.10;;;2.70;;
8663;SDS011;4369;47.842;13.096;2022-11-20T02:46:29;3.50;;;2.40;;
8663;SDS011;4369;47.842;13.096;2022-11-20T02:48:57;3.40;;;2.80;;
8663;SDS011;4369;47.842;13.096;2022-11-20T02:51:27;3.63;;;2.33;;
8663;SDS011;4369;47.842;13.096;2022-11-20T02:53:53;2.60;;;2.40;;
8663;SDS011;4369;47.842;13.096;2022-11-20T02:56:20;2.53;;;2.33;;
8663;SDS011;4369;47.842;13.096;2022-11-20T02:58:49;2.57;;;2.37;;
8663;SDS011;4369;47.842;13.096;2022-11-20T03:01:16;2.37;;;2.17;;
8663;SDS011;4369;47.842;13.096;2022-11-20T03:03:42;2.50;;;2.07;;
8663;SDS011;4369;47.842;13.096;2022-11-20T03:06:09;2.53;;;2.33;;
8663;SDS011;4369;47.842;13.096;2022-11-20T03:08:36;3.00;;;2.30;;
8663;SDS011;4369;47.842;13.096;2022-11-20T03:11:03;2.53;;;2.33;;
8663;SDS011;4369;47.842;13.096;2022-11-20T03:13:31;2.73;;;2.23;;
8663;SDS011;4369;47.842;13.096;2022-11-20T03:16:05;2.47;;;2.27;;
8663;SDS011;4369;47.842;13.096;2022-11-20T03:18:33;2.67;;;2.27;;
8663;SDS011;4369;47.842;13.096;2022-11-20T03:21:00;5.40;;;2.93;;
8663;SDS011;4369;47.842;13.096;2022-11-20T03:23:28;3.07;;;2.37;;
8663;SDS011;4369;47.842;13.096;2022-11-20T03:25:56;3.70;;;2.60;;
8663;SDS011;4369;47.842;13.096;2022-11-20T03:28:32;3.73;;;2.27;;
8663;SDS011;4369;47.842;13.096;2022-11-20T03:31:05;3.50;;;2.47;;
8663;SDS011;4369;47.842;13.096;2022-11-20T03:33:33;3.67;;;2.50;;
8663;SDS011;4369;47.842;13.096;2022-11-20T03:36:00;3.80;;;3.20;;
8663;SDS011;4369;47.842;13.096;2022-11-20T03:38:28;6.00;;;2.73;;
8663;SDS011;4369;47.842;13.096;2022-11-20T03:40:57;3.67;;;2.87;;
8663;SDS011;4369;47.842;13.096;2022-11-20T03:43:25;3.90;;;2.70;;
8663;SDS011;4369;47.842;13.096;2022-11-20T03:45:52;3.50;;;3.20;;
8663;SDS011;4369;47.842;13.096;2022-11-20T03:48:20;3.77;;;2.93;;
8663;SDS011;4369;47.842;13.096;2022-11-20T03:50:47;3.57;;;3.07;;
8663;SDS011;4369;47.842;13.096;2022-11-20T03:53:13;4.30;;;3.00;;
8663;SDS011;4369;47.842;13.096;2022-11-20T03:55:40;3.60;;;2.30;;
8663;SDS011;4369;47.842;13.096;2022-11-20T03:58:07;3.43;;;3.10;;
8663;SDS011;4369;47.842;13.096;2022-11-20T04:00:35;2.70;;;2.50;;
8663;SDS011;4369;47.842;13.096;2022-11-20T04:03:02;3.60;;;3.00;;
8663;SDS011;4369;47.842;13.096;2022-11-20T04:05:32;2.57;;;2.30;;
8663;SDS011;4369;47.842;13.096;2022-11-20T04:07:59;2.87;;;2.67;;
8663;SDS011;4369;47.842;13.096;2022-11-20T04:10:26;3.03;;;2.67;;
8663;SDS011;4369;47.842;13.096;2022-11-20T04:12:53;2.83;;;2.60;;
8663;SDS011;4369;47.842;13.096;2022-11-20T04:15:20;3.80;;;3.10;;
8663;SDS011;4369;47.842;13.096;2022-11-20T04:17:47;3.50;;;3.20;;
8663;SDS011;4369;47.842;13.096;2022-11-20T04:20:14;4.10;;;3.50;;
8663;SDS011;4369;47.842;13.096;2022-11-20T04:22:42;4.00;;;3.53;;
8663;SDS011;4369;47.842;13.096;2022-11-20T04:25:09;4.17;;;3.77;;
8663;SDS011;4369;47.842;13.096;2022-11-20T04:27:36;5.13;;;3.50;;
8663;SDS011;4369;47.842;13.096;2022-11-20T04:30:03;4.03;;;3.60;;
8663;SDS011;4369;47.842;13.096;2022-11-20T04:32:30;3.77;;;3.47;;
8663;SDS011;4369;47.842;13.096;2022-11-20T04:34:57;4.83;;;3.83;;
8663;SDS011;4369;47.842;13.096;2022-11-20T04:37:24;5.73;;;3.60;;
8663;SDS011;4369;47.842;13.096;2022-11-20T04:39:52;4.00;;;3.60;;
8663;SDS011;4369;47.842;13.096;2022-11-20T04:42:19;4.10;;;3.70;;
8663;SDS011;4369;47.842;13.096;2022-11-20T04:44:55;3.70;;;3.40;;
8663;SDS011;4369;47.842;13.096;2022-11-20T04:47:22;5.30;;;3.90;;
8663;SDS011;4369;47.842;13.096;2022-11-20T04:49:49;5.50;;;3.67;;
8663;SDS011;4369;47.842;13.096;2022-11-20T04:52:15;4.23;;;3.83;;
8663;SDS011;4369;47.842;13.096;2022-11-20T04:54:42;4.20;;;3.60;;
8663;SDS011;4369;47.842;13.096;2022-11-20T04:57:10;3.43;;;3.13;;
8663;SDS011;4369;47.842;13.096;2022-11-20T04:59:39;5.60;;;3.90;;
8663;SDS011;4369;47.842;13.096;2022-11-20T05:02:06;4.03;;;3.60;;
8663;SDS011;4369;47.842;13.096;2022-11-20T05:04:33;3.60;;;3.30;;
8663;SDS011;4369;47.842;13.096;2022-11-20T05:07:00;3.90;;;3.50;;
8663;SDS011;4369;47.842;13.096;2022-11-20T05:09:26;3.50;;;3.20;;
8663;SDS011;4369;47.842;13.096;2022-11-20T05:11:53;4.43;;;3.73;;
8663;SDS011;4369;47.842;13.096;2022-11-20T05:14:21;5.63;;;3.90;;
8663;SDS011;4369;47.842;13.096;2022-11-20T05:16:48;9.80;;;4.03;;
8663;SDS011;4369;47.842;13.096;2022-11-20T05:19:15;4.37;;;3.93;;
8663;SDS011;4369;47.842;13.096;2022-11-20T05:21:42;4.50;;;3.80;;
8663;SDS011;4369;47.842;13.096;2022-11-20T05:24:09;3.93;;;3.63;;
8663;SDS011;4369;47.842;13.096;2022-11-20T05:26:36;3.93;;;3.53;;
8663;SDS011;4369;47.842;13.096;2022-11-20T05:29:03;4.90;;;4.40;;
8663;SDS011;4369;47.842;13.096;2022-11-20T05:31:31;5.40;;;4.90;;
8663;SDS011;4369;47.842;13.096;2022-11-20T05:33:58;4.03;;;3.73;;
8663;SDS011;4369;47.842;13.096;2022-11-20T05:36:37;6.37;;;4.23;;
8663;SDS011;4369;47.842;13.096;2022-11-20T05:39:06;5.83;;;4.87;;
8663;SDS011;4369;47.842;13.096;2022-11-20T05:41:34;5.03;;;4.03;;
8663;SDS011;4369;47.842;13.096;2022-11-20T05:44:01;4.27;;;3.87;;
8663;SDS011;4369;47.842;13.096;2022-11-20T05:46:28;4.57;;;4.17;;
8663;SDS011;4369;47.842;13.096;2022-11-20T05:48:57;4.83;;;4.33;;
8663;SDS011;4369;47.842;13.096;2022-11-20T05:51:24;5.57;;;4.33;;
8663;SDS011;4369;47.842;13.096;2022-11-20T05:53:55;4.93;;;3.90;;
8663;SDS011;4369;47.842;13.096;2022-11-20T05:56:23;5.50;;;4.43;;
8663;SDS011;4369;47.842;13.096;2022-11-20T05:58:50;5.33;;;4.47;;
8663;SDS011;4369;47.842;13.096;2022-11-20T06:01:18;5.37;;;4.17;;
8663;SDS011;4369;47.842;13.096;2022-11-20T06:03:48;5.23;;;4.70;;
8663;SDS011;4369;47.842;13.096;2022-11-20T06:06:16;5.23;;;4.73;;
8663;SDS011;4369;47.842;13.096;2022-11-20T06:08:43;3.97;;;3.50;;
8663;SDS011;4369;47.842;13.096;2022-11-20T06:11:11;3.80;;;3.40;;
8663;SDS011;4369;47.842;13.096;2022-11-20T06:13:39;3.90;;;3.40;;
8663;SDS011;4369;47.842;13.096;2022-11-20T06:16:06;4.00;;;3.60;;
8663;SDS011;4369;47.842;13.096;2022-11-20T06:18:33;4.30;;;3.60;;
8663;SDS011;4369;47.842;13.096;2022-11-20T06:21:03;4.17;;;3.63;;
8663;SDS011;4369;47.842;13.096;2022-11-20T06:23:31;4.77;;;3.53;;
8663;SDS011;4369;47.842;13.096;2022-11-20T06:28:46;3.10;;;2.90;;
8663;SDS011;4369;47.842;13.096;2022-11-20T06:31:15;4.33;;;3.93;;
8663;SDS011;4369;47.842;13.096;2022-11-20T06:33:43;5.73;;;4.10;;
8663;SDS011;4369;47.842;13.096;2022-11-20T06:36:12;3.73;;;3.33;;
8663;SDS011;4369;47.842;13.096;2022-11-20T06:38:40;4.13;;;3.60;;
8663;SDS011;4369;47.842;13.096;2022-11-20T06:41:09;3.57;;;3.27;;
8663;SDS011;4369;47.842;13.096;2022-11-20T06:43:38;6.23;;;5.63;;
8663;SDS011;4369;47.842;13.096;2022-11-20T06:46:04;6.93;;;5.50;;
8663;SDS011;4369;47.842;13.096;2022-11-20T06:48:32;5.47;;;4.97;;
8663;SDS011;4369;47.842;13.096;2022-11-20T06:50:59;14.20;;;12.70;;
8663;SDS011;4369;47.842;13.096;2022-11-20T06:53:27;4.77;;;3.70;;
8663;SDS011;4369;47.842;13.096;2022-11-20T06:55:55;3.50;;;3.20;;
8663;SDS011;4369;47.842;13.096;2022-11-20T06:58:22;4.63;;;3.53;;
8663;SDS011;4369;47.842;13.096;2022-11-20T07:00:49;5.43;;;3.63;;
8663;SDS011;4369;47.842;13.096;2022-11-20T07:03:16;4.10;;;3.00;;
8663;SDS011;4369;47.842;13.096;2022-11-20T07:05:43;3.83;;;2.97;;
8663;SDS011;4369;47.842;13.096;2022-11-20T07:08:10;5.37;;;3.27;;
8663;SDS011;4369;47.842;13.096;2022-11-20T07:10:39;3.97;;;2.90;;
8663;SDS011;4369;47.842;13.096;2022-11-20T07:13:06;3.00;;;2.70;;
8663;SDS011;4369;47.842;13.096;2022-11-20T07:15:32;3.30;;;3.00;;
8663;SDS011;4369;47.842;13.096;2022-11-20T07:17:59;4.10;;;3.13;;
8663;SDS011;4369;47.842;13.096;2022-11-20T07:20:26;4.13;;;3.80;;
8663;SDS011;4369;47.842;13.096;2022-11-20T07:22:54;4.17;;;3.70;;
8663;SDS011;4369;47.842;13.096;2022-11-20T07:25:21;3.87;;;3.50;;
8663;SDS011;4369;47.842;13.096;2022-11-20T07:27:50;3.53;;;3.23;;
8663;SDS011;4369;47.842;13.096;2022-11-20T07:30:17;3.30;;;2.97;;
8663;SDS011;4369;47.842;13.096;2022-11-20T07:32:45;3.53;;;3.20;;
8663;SDS011;4369;47.842;13.096;2022-11-20T07:35:12;4.80;;;2.73;;
8663;SDS011;4369;47.842;13.096;2022-11-20T07:37:39;2.80;;;2.60;;
8663;SDS011;4369;47.842;13.096;2022-11-20T07:40:06;2.97;;;2.67;;
8663;SDS011;4369;47.842;13.096;2022-11-20T07:42:34;3.20;;;2.60;;
8663;SDS011;4369;47.842;13.096;2022-11-20T07:45:02;3.53;;;3.23;;
8663;SDS011;4369;47.842;13.096;2022-11-20T07:47:34;3.70;;;3.13;;
8663;SDS011;4369;47.842;13.096;2022-11-20T07:50:01;3.67;;;3.30;;
8663;SDS011;4369;47.842;13.096;2022-11-20T07:52:28;6.37;;;4.10;;
8663;SDS011;4369;47.842;13.096;2022-11-20T07:54:55;4.53;;;3.53;;
8663;SDS011;4369;47.842;13.096;2022-11-20T07:57:22;3.83;;;3.10;;
8663;SDS011;4369;47.842;13.096;2022-11-20T07:59:49;2.60;;;2.40;;
8663;SDS011;4369;47.842;13.096;2022-11-20T08:02:17;2.97;;;2.77;;
8663;SDS011;4369;47.842;13.096;2022-11-20T08:04:44;3.30;;;3.00;;
8663;SDS011;4369;47.842;13.096;2022-11-20T08:07:11;2.77;;;2.57;;
8663;SDS011;4369;47.842;13.096;2022-11-20T08:09:38;2.93;;;2.67;;
8663;SDS011;4369;47.842;13.096;2022-11-20T08:12:10;3.63;;;3.27;;
8663;SDS011;4369;47.842;13.096;2022-11-20T08:15:01;2.77;;;2.57;;
8663;SDS011;4369;47.842;13.096;2022-11-20T08:17:29;3.30;;;2.90;;
8663;SDS011;4369;47.842;13.096;2022-11-20T08:19:57;3.50;;;2.83;;
8663;SDS011;4369;47.842;13.096;2022-11-20T08:22:24;3.87;;;2.73;;
8663;SDS011;4369;47.842;13.096;2022-11-20T08:24:52;3.80;;;2.40;;
8663;SDS011;4369;47.842;13.096;2022-11-20T08:27:19;3.37;;;2.60;;
8663;SDS011;4369;47.842;13.096;2022-11-20T08:29:46;2.70;;;2.50;;
8663;SDS011;4369;47.842;13.096;2022-11-20T08:32:12;2.87;;;2.57;;
8663;SDS011;4369;47.842;13.096;2022-11-20T08:34:41;4.20;;;2.70;;
8663;SDS011;4369;47.842;13.096;2022-11-20T08:37:07;2.50;;;2.30;;
8663;SDS011;4369;47.842;13.096;2022-11-20T08:39:34;2.60;;;2.40;;
8663;SDS011;4369;47.842;13.096;2022-11-20T08:42:01;3.83;;;2.83;;
8663;SDS011;4369;47.842;13.096;2022-11-20T08:44:28;2.60;;;2.40;;
8663;SDS011;4369;47.842;13.096;2022-11-20T08:46:55;3.47;;;2.97;;
8663;SDS011;4369;47.842;13.096;2022-11-20T08:49:22;2.53;;;2.10;;
8663;SDS011;4369;47.842;13.096;2022-11-20T08:51:50;3.00;;;2.60;;
8663;SDS011;4369;47.842;13.096;2022-11-20T08:54:20;2.30;;;2.17;;
8663;SDS011;4369;47.842;13.096;2022-11-20T08:56:47;2.67;;;2.47;;
8663;SDS011;4369;47.842;13.096;2022-11-20T08:59:14;2.80;;;2.50;;
8663;SDS011;4369;47.842;13.096;2022-11-20T09:01:41;3.40;;;2.87;;
8663;SDS011;4369;47.842;13.096;2022-11-20T09:04:08;4.00;;;3.17;;
8663;SDS011;4369;47.842;13.096;2022-11-20T09:06:34;2.77;;;2.57;;
8663;SDS011;4369;47.842;13.096;2022-11-20T09:09:03;2.73;;;2.53;;
8663;SDS011;4369;47.842;13.096;2022-11-20T09:11:30;3.10;;;2.63;;
8663;SDS011;4369;47.842;13.096;2022-11-20T09:13:57;2.53;;;2.33;;
8663;SDS011;4369;47.842;13.096;2022-11-20T09:16:25;3.67;;;2.60;;
8663;SDS011;4369;47.842;13.096;2022-11-20T09:18:51;2.17;;;2.03;;
8663;SDS011;4369;47.842;13.096;2022-11-20T09:21:18;2.57;;;2.10;;
8663;SDS011;4369;47.842;13.096;2022-11-20T09:23:45;2.00;;;1.90;;
8663;SDS011;4369;47.842;13.096;2022-11-20T09:26:13;2.80;;;1.90;;
8663;SDS011;4369;47.842;13.096;2022-11-20T09:28:40;1.90;;;1.80;;
8663;SDS011;4369;47.842;13.096;2022-11-20T09:31:07;2.07;;;1.97;;
8663;SDS011;4369;47.842;13.096;2022-11-20T09:33:35;1.80;;;1.70;;
8663;SDS011;4369;47.842;13.096;2022-11-20T09:36:02;3.23;;;1.70;;
8663;SDS011;4369;47.842;13.096;2022-11-20T09:38:29;1.60;;;1.50;;
8663;SDS011;4369;47.842;13.096;2022-11-20T09:40:57;2.00;;;1.80;;
8663;SDS011;4369;47.842;13.096;2022-11-20T09:43:32;2.97;;;2.77;;
8663;SDS011;4369;47.842;13.096;2022-11-20T09:46:13;2.53;;;1.90;;
8663;SDS011;4369;47.842;13.096;2022-11-20T09:48:54;1.90;;;1.80;;
8663;SDS011;4369;47.842;13.096;2022-11-20T09:51:32;2.43;;;2.23;;
8663;SDS011;4369;47.842;13.096;2022-11-20T09:54:11;3.73;;;2.00;;
8663;SDS011;4369;47.842;13.096;2022-11-20T09:56:43;2.97;;;1.80;;
8663;SDS011;4369;47.842;13.096;2022-11-20T09:59:18;3.07;;;1.97;;
8663;SDS011;4369;47.842;13.096;2022-11-20T10:02:03;1.87;;;1.40;;
8663;SDS011;4369;47.842;13.096;2022-11-20T10:04:42;2.63;;;1.87;;
8663;SDS011;4369;47.842;13.096;2022-11-20T10:07:16;1.43;;;1.33;;
8663;SDS011;4369;47.842;13.096;2022-11-20T10:09:49;1.53;;;1.40;;
8663;SDS011;4369;47.842;13.096;2022-11-20T10:12:18;1.50;;;1.40;;
8663;SDS011;4369;47.842;13.096;2022-11-20T10:14:56;1.30;;;1.20;;
8663;SDS011;4369;47.842;13.096;2022-11-20T10:17:34;1.10;;;1.00;;
8663;SDS011;4369;47.842;13.096;2022-11-20T10:20:19;1.17;;;1.00;;
8663;SDS011;4369;47.842;13.096;2022-11-20T10:22:58;1.10;;;1.00;;
8663;SDS011;4369;47.842;13.096;2022-11-20T10:25:37;2.10;;;1.03;;
8663;SDS011;4369;47.842;13.096;2022-11-20T10:28:16;1.27;;;1.17;;
8663;SDS011;4369;47.842;13.096;2022-11-20T10:31:08;1.20;;;1.07;;
8663;SDS011;4369;47.842;13.096;2022-11-20T10:33:39;0.70;;;0.70;;
8663;SDS011;4369;47.842;13.096;2022-11-20T10:36:11;0.80;;;0.80;;
8663;SDS011;4369;47.842;13.096;2022-11-20T10:38:43;1.47;;;0.90;;
8663;SDS011;4369;47.842;13.096;2022-11-20T10:41:16;1.27;;;0.90;;
8663;SDS011;4369;47.842;13.096;2022-11-20T10:43:53;4.83;;;3.23;;
8663;SDS011;4369;47.842;13.096;2022-11-20T10:46:29;1.37;;;1.27;;
8663;SDS011;4369;47.842;13.096;2022-11-20T10:49:04;1.27;;;1.17;;
8663;SDS011;4369;47.842;13.096;2022-11-20T10:51:37;0.70;;;0.70;;
8663;SDS011;4369;47.842;13.096;2022-11-20T10:54:12;1.77;;;1.10;;
8663;SDS011;4369;47.842;13.096;2022-11-20T10:56:47;1.17;;;0.97;;
8663;SDS011;4369;47.842;13.096;2022-11-20T10:59:24;0.90;;;0.90;;
8663;SDS011;4369;47.842;13.096;2022-11-20T11:02:12;1.00;;;1.00;;
8663;SDS011;4369;47.842;13.096;2022-11-20T11:04:42;1.50;;;1.03;;
8663;SDS011;4369;47.842;13.096;2022-11-20T11:07:12;1.50;;;1.40;;
8663;SDS011;4369;47.842;13.096;2022-11-20T11:09:43;1.00;;;1.00;;
8663;SDS011;4369;47.842;13.096;2022-11-20T11:12:13;1.10;;;1.10;;
8663;SDS011;4369;47.842;13.096;2022-11-20T11:14:47;2.87;;;1.30;;
8663;SDS011;4369;47.842;13.096;2022-11-20T11:17:24;1.60;;;1.40;;
8663;SDS011;4369;47.842;13.096;2022-11-20T11:20:03;1.60;;;1.50;;
8663;SDS011;4369;47.842;13.096;2022-11-20T11:22:33;1.23;;;1.00;;
8663;SDS011;4369;47.842;13.096;2022-11-20T11:25:11;2.10;;;1.10;;
8663;SDS011;4369;47.842;13.096;2022-11-20T11:27:45;1.30;;;1.00;;
8663;SDS011;4369;47.842;13.096;2022-11-20T11:30:14;1.73;;;1.23;;
8663;SDS011;4369;47.842;13.096;2022-11-20T11:32:44;1.50;;;1.40;;
8663;SDS011;4369;47.842;13.096;2022-11-20T11:35:24;1.87;;;1.13;;
8663;SDS011;4369;47.842;13.096;2022-11-20T11:37:53;0.90;;;0.80;;
8663;SDS011;4369;47.842;13.096;2022-11-20T11:40:28;0.77;;;0.77;;
8663;SDS011;4369;47.842;13.096;2022-11-20T11:42:58;0.80;;;0.80;;
8663;SDS011;4369;47.842;13.096;2022-11-20T11:45:28;0.77;;;0.73;;
8663;SDS011;4369;47.842;13.096;2022-11-20T11:47:56;1.33;;;0.77;;
8663;SDS011;4369;47.842;13.096;2022-11-20T11:50:26;0.60;;;0.60;;
8663;SDS011;4369;47.842;13.096;2022-11-20T11:52:56;1.23;;;0.70;;
8663;SDS011;4369;47.842;13.096;2022-11-20T11:55:29;0.80;;;0.80;;
8663;SDS011;4369;47.842;13.096;2022-11-20T11:58:04;0.80;;;0.80;;
8663;SDS011;4369;47.842;13.096;2022-11-20T12:00:41;1.00;;;1.00;;
8663;SDS011;4369;47.842;13.096;2022-11-20T12:03:19;1.70;;;0.90;;
8663;SDS011;4369;47.842;13.096;2022-11-20T12:05:51;0.60;;;0.60;;
8663;SDS011;4369;47.842;13.096;2022-11-20T12:08:23;0.83;;;0.83;;
8663;SDS011;4369;47.842;13.096;2022-11-20T12:10:55;0.80;;;0.80;;
8663;SDS011;4369;47.842;13.096;2022-11-20T12:13:35;0.80;;;0.80;;
8663;SDS011;4369;47.842;13.096;2022-11-20T12:16:09;1.13;;;1.00;;
8663;SDS011;4369;47.842;13.096;2022-11-20T12:18:42;0.77;;;0.77;;
8663;SDS011;4369;47.842;13.096;2022-11-20T12:21:18;1.17;;;0.80;;
8663;SDS011;4369;47.842;13.096;2022-11-20T12:23:53;1.83;;;1.40;;
8663;SDS011;4369;47.842;13.096;2022-11-20T12:26:43;1.50;;;1.40;;
8663;SDS011;4369;47.842;13.096;2022-11-20T12:29:23;2.20;;;1.70;;
8663;SDS011;4369;47.842;13.096;2022-11-20T12:32:06;1.53;;;1.33;;
8663;SDS011;4369;47.842;13.096;2022-11-20T12:34:58;1.50;;;1.40;;
8663;SDS011;4369;47.842;13.096;2022-11-20T12:55:04;1.10;;;0.93;;
8663;SDS011;4369;47.842;13.096;2022-11-20T13:00:14;0.90;;;0.90;;
8663;SDS011;4369;47.842;13.096;2022-11-20T13:02:55;0.90;;;0.90;;
8663;SDS011;4369;47.842;13.096;2022-11-20T13:05:47;0.70;;;0.70;;
8663;SDS011;4369;47.842;13.096;2022-11-20T13:08:24;1.30;;;0.80;;
8663;SDS011;4369;47.842;13.096;2022-11-20T13:10:56;1.17;;;1.07;;
8663;SDS011;4369;47.842;13.096;2022-11-20T13:13:29;1.10;;;1.00;;
8663;SDS011;4369;47.842;13.096;2022-11-20T13:16:07;0.70;;;0.70;;
8663;SDS011;4369;47.842;13.096;2022-11-20T13:18:40;0.83;;;0.83;;
8663;SDS011;4369;47.842;13.096;2022-11-20T13:21:15;0.90;;;0.90;;
8663;SDS011;4369;47.842;13.096;2022-11-20T13:23:44;0.63;;;0.60;;
8663;SDS011;4369;47.842;13.096;2022-11-20T13:26:15;0.60;;;0.60;;
8663;SDS011;4369;47.842;13.096;2022-11-20T13:28:45;1.60;;;0.90;;
8663;SDS011;4369;47.842;13.096;2022-11-20T13:31:32;0.60;;;0.60;;
8663;SDS011;4369;47.842;13.096;2022-11-20T13:34:01;0.77;;;0.77;;
8663;SDS011;4369;47.842;13.096;2022-11-20T13:36:31;0.60;;;0.60;;
8663;SDS011;4369;47.842;13.096;2022-11-20T13:39:02;1.07;;;0.80;;
8663;SDS011;4369;47.842;13.096;2022-11-20T13:41:30;0.77;;;0.77;;
8663;SDS011;4369;47.842;13.096;2022-11-20T13:44:04;0.93;;;0.93;;
8663;SDS011;4369;47.842;13.096;2022-11-20T13:46:36;1.03;;;0.87;;
8663;SDS011;4369;47.842;13.096;2022-11-20T13:49:08;0.90;;;0.90;;
8663;SDS011;4369;47.842;13.096;2022-11-20T13:51:40;0.80;;;0.80;;
8663;SDS011;4369;47.842;13.096;2022-11-20T13:59:27;1.17;;;1.07;;
8663;SDS011;4369;47.842;13.096;2022-11-20T14:04:43;0.93;;;0.93;;
8663;SDS011;4369;47.842;13.096;2022-11-20T14:13:15;2.33;;;0.93;;
8663;SDS011;4369;47.842;13.096;2022-11-20T14:15:56;0.90;;;0.90;;
8663;SDS011;4369;47.842;13.096;2022-11-20T14:18:25;1.00;;;0.97;;
8663;SDS011;4369;47.842;13.096;2022-11-20T14:31:18;0.70;;;0.70;;
8663;SDS011;4369;47.842;13.096;2022-11-20T14:42:33;1.00;;;1.00;;
8663;SDS011;4369;47.842;13.096;2022-11-20T14:47:37;1.00;;;1.00;;
8663;SDS011;4369;47.842;13.096;2022-11-20T14:50:07;0.97;;;0.97;;
8663;SDS011;4369;47.842;13.096;2022-11-20T14:52:40;0.90;;;0.90;;
8663;SDS011;4369;47.842;13.096;2022-11-20T14:55:26;0.80;;;0.80;;
8663;SDS011;4369;47.842;13.096;2022-11-20T14:57:57;1.13;;;1.13;;
8663;SDS011;4369;47.842;13.096;2022-11-20T15:00:26;0.80;;;0.80;;
8663;SDS011;4369;47.842;13.096;2022-11-20T15:02:55;0.80;;;0.80;;
8663;SDS011;4369;47.842;13.096;2022-11-20T15:05:23;1.23;;;1.13;;
8663;SDS011;4369;47.842;13.096;2022-11-20T15:08:03;1.80;;;1.20;;
8663;SDS011;4369;47.842;13.096;2022-11-20T15:10:32;1.03;;;1.03;;
8663;SDS011;4369;47.842;13.096;2022-11-20T15:13:01;1.20;;;1.10;;
8663;SDS011;4369;47.842;13.096;2022-11-20T15:15:30;1.43;;;0.97;;
8663;SDS011;4369;47.842;13.096;2022-11-20T15:18:02;1.13;;;0.97;;
8663;SDS011;4369;47.842;13.096;2022-11-20T15:20:30;1.10;;;1.10;;
8663;SDS011;4369;47.842;13.096;2022-11-20T15:22:59;1.13;;;1.13;;
8663;SDS011;4369;47.842;13.096;2022-11-20T15:25:25;1.27;;;1.17;;
8663;SDS011;4369;47.842;13.096;2022-11-20T15:27:54;1.37;;;1.10;;
8663;SDS011;4369;47.842;13.096;2022-11-20T15:30:22;1.53;;;1.40;;
8663;SDS011;4369;47.842;13.096;2022-11-20T15:32:50;1.70;;;1.30;;
8663;SDS011;4369;47.842;13.096;2022-11-20T15:35:18;1.30;;;1.20;;
8663;SDS011;4369;47.842;13.096;2022-11-20T15:37:45;1.93;;;1.40;;
8663;SDS011;4369;47.842;13.096;2022-11-20T15:40:12;2.00;;;1.37;;
8663;SDS011;4369;47.842;13.096;2022-11-20T15:42:39;1.10;;;1.10;;
8663;SDS011;4369;47.842;13.096;2022-11-20T15:45:26;2.13;;;1.33;;
8663;SDS011;4369;47.842;13.096;2022-11-20T15:47:55;2.90;;;1.17;;
8663;SDS011;4369;47.842;13.096;2022-11-20T15:50:24;1.23;;;1.13;;
8663;SDS011;4369;47.842;13.096;2022-11-20T15:52:55;2.10;;;1.20;;
8663;SDS011;4369;47.842;13.096;2022-11-20T15:55:22;2.07;;;0.90;;
8663;SDS011;4369;47.842;13.096;2022-11-20T15:57:50;1.93;;;1.10;;
8663;SDS011;4369;47.842;13.096;2022-11-20T16:00:17;0.80;;;0.80;;
8663;SDS011;4369;47.842;13.096;2022-11-20T16:02:45;1.13;;;0.83;;
8663;SDS011;4369;47.842;13.096;2022-11-20T16:05:12;0.90;;;0.80;;
8663;SDS011;4369;47.842;13.096;2022-11-20T16:07:42;0.97;;;0.97;;
8663;SDS011;4369;47.842;13.096;2022-11-20T16:10:09;1.40;;;1.00;;
8663;SDS011;4369;47.842;13.096;2022-11-20T16:12:36;0.70;;;0.70;;
8663;SDS011;4369;47.842;13.096;2022-11-20T16:15:21;0.70;;;0.70;;